Flight Track Log - Related Links

Times and Time Zones

All times are in EDT time to prevent confusion due to time zone crossing. See the TAM3469 flight status page for this flight to view local times or setup timezone preferences in your user account.

Time Position Orientation Groundspeed Altitude Reporting Facility
EDT Latitude Longitude Course Direction KTS MPH feet Rate Location/Type
Mon 07:10:00 PM -18.5849 -48.5281 161° South  Level Estimated
Mon 07:11:00 PM -18.6736 -48.4963 161° South  Level Estimated
Mon 07:12:00 PM -18.7623 -48.4644 161° South  Level Estimated
Mon 07:13:00 PM -18.8510 -48.4325 161° South  Level Estimated
Mon 07:14:00 PM -18.9397 -48.4005 161° South  Level Estimated
Mon 07:15:00 PM -19.0284 -48.3685 161° South  Level Estimated
Mon 07:16:00 PM -19.1171 -48.3365 161° South  Level Estimated
Mon 07:17:00 PM -19.2057 -48.3045 161° South  Level Estimated
Mon 07:18:00 PM -19.2944 -48.2724 161° South  Level Estimated
Mon 07:19:00 PM -19.3831 -48.2403 161° South  Level Estimated
Mon 07:20:00 PM -19.4717 -48.2081 161° South  Level Estimated
Mon 07:21:00 PM -19.5604 -48.1759 161° South  Level Estimated
Mon 07:22:00 PM -19.6490 -48.1437 161° South  Level Estimated
Mon 07:23:00 PM -19.7377 -48.1115 161° South  Level Estimated
Mon 07:24:00 PM -19.8263 -48.0792 161° South  Level Estimated
Mon 07:25:00 PM -19.9149 -48.0468 161° South  Level Estimated
Mon 07:26:00 PM -20.0036 -48.0145 161° South  Level Estimated
Mon 07:27:00 PM -20.0922 -47.9821 161° South  Level Estimated
Mon 07:28:00 PM -20.1808 -47.9496 161° South  Level Estimated
Mon 07:29:00 PM -20.2694 -47.9171 161° South  Level Estimated
Mon 07:30:00 PM -20.3580 -47.8846 161° South  Level Estimated
Mon 07:31:00 PM -20.4466 -47.8521 161° South  Level Estimated
Mon 07:32:00 PM -20.5352 -47.8195 161° South  Level Estimated
Mon 07:33:00 PM -20.6238 -47.7869 161° South  Level Estimated
Mon 07:34:00 PM -20.7124 -47.7542 161° South  Level Estimated
Mon 07:35:00 PM -20.8009 -47.7215 161° South  Level Estimated
Mon 07:36:00 PM -20.8895 -47.6888 161° South  Level Estimated
Mon 07:37:00 PM -20.9780 -47.6560 161° South  Level Estimated
Mon 07:38:00 PM -21.0666 -47.6232 161° South  Level Estimated
Mon 07:39:00 PM -21.1551 -47.5903 161° South  Level Estimated
Mon 07:40:00 PM -21.2437 -47.5574 161° South  Level Estimated
Mon 07:41:00 PM -21.3322 -47.5245 161° South  Level Estimated
Mon 07:42:00 PM -21.4207 -47.4915 161° South  Level Estimated
Mon 07:43:00 PM -21.5093 -47.4585 161° South  Level Estimated
Mon 07:44:00 PM -21.5978 -47.4254 161° South  Level Estimated
Mon 07:45:00 PM -21.6863 -47.3923 161° South  Level Estimated
Mon 07:46:00 PM -21.7748 -47.3592 161° South  Level Estimated
Mon 07:47:00 PM -21.8633 -47.3260 161° South  Level Estimated
Mon 07:48:00 PM -21.9517 -47.2928 161° South  Level Estimated
Mon 07:49:00 PM -22.0402 -47.2595 161° South  Level Estimated
Mon 07:50:00 PM -22.1287 -47.2262 161° South  Level Estimated
Mon 07:51:00 PM -22.2172 -47.1929 161° South  Level Estimated
Mon 07:52:00 PM -22.3056 -47.1595 161° South  Level Estimated
Mon 07:53:00 PM -22.3941 -47.1260 161° South  Level Estimated
Mon 07:54:00 PM -22.4825 -47.0926 161° South  Level Estimated
Mon 07:55:00 PM -22.5710 -47.0591 161° South  Level Estimated
Mon 07:56:00 PM -22.6594 -47.0255 161° South  Level Estimated
Mon 07:57:00 PM -22.7478 -46.9919 161° South  Level Estimated
Mon 07:58:00 PM -22.8362 -46.9583 161° South  Level Estimated
Mon 07:59:00 PM -22.9247 -46.9246 161° South  Level Estimated
Mon 08:00:00 PM -23.0131 -46.8908 161° South  Level Estimated
Mon 08:01:00 PM -23.1014 -46.8571 161° South  Level Estimated
Mon 08:02:00 PM -23.1898 -46.8232 161° South  Level Estimated
Mon 08:03:00 PM -23.2782 -46.7894 161° South  Level Estimated
Mon 08:04:00 PM -23.3666 -46.7555 161° South  Level Estimated
Mon 08:05:00 PM -23.4550 -46.7215 161° South  Level Estimated
Mon 08:06:00 PM -23.5433 -46.6875 161° South  Level Estimated
Mon 08:07:00 PM -23.6267 -46.6554 161° South  Level Estimated
Mon 08:08:00 PM -23.6267 -46.6554 114° Southeast  Level Estimated
Mon 08:09:00 PM -23.6267 -46.6554 114° Southeast  Level Estimated
Mon 08:10:00 PM -23.6267 -46.6554 114° Southeast  Level Estimated
Mon 08:11:00 PM -23.6267 -46.6554 114° Southeast  Level Estimated
Mon 08:12:00 PM -23.6267 -46.6554 114° Southeast  Level Estimated
Mon 08:13:00 PM -23.6267 -46.6554 114° Southeast  Level Estimated
Mon 08:14:00 PM -23.6267 -46.6554 114° Southeast  Level Estimated
Mon 08:15:00 PM -23.6267 -46.6554 114° Southeast  Level Estimated
Mon 08:16:00 PM -23.6267 -46.6554 114° Southeast  Level Estimated
Mon 08:17:00 PM -23.6267 -46.6554 114° Southeast  Level Estimated
Mon 08:18:00 PM -23.6267 -46.6554 114° Southeast  Level Estimated
Mon 08:19:00 PM -23.6267 -46.6554 114° Southeast  Level Estimated
Mon 08:20:00 PM -23.6267 -46.6554 114° Southeast  Level Estimated
Mon 08:21:00 PM -23.6267 -46.6554 114° Southeast  Level Estimated
Mon 08:22:00 PM -23.6267 -46.6554 114° Southeast  Level Estimated
Mon 08:23:00 PM -23.6267 -46.6554 114° Southeast  Level Estimated

Login

Don't have an account? Register now (free) for customized features, flight alerts, and more!